Pioche, Nevada Weather observations

Data are for observation ending at time listed.
 Day   Time    Ave.   Ave.  Ave.  Vector   Max.   Stn.    Total    Solar   Ave.  
  of    of     Air    Rel.  Wind   Wind    Wind   Baro.  Precip.   Rad.    Soil  
Year   Day     Temp.  Hum.  Speed  Dir.    Gust   Pres.                    Temp. 
2015   (PST)    F      %     mph   deg.    mph     mb.     in.     W/m2     F   
------------------------------------------------------------------------------
 215   10:20   83.4    19    3.3   194     13.0   821.9    0.00    1003    74.4
 215   10:30   84.1    19    4.8   222     13.4   822.0    0.00    1019    74.4
 215   10:40   83.5    18    5.2   269     14.8   821.8    0.00    1017    74.4
 215   10:50   83.8    19    6.0   230     13.6   821.8    0.00    1035    74.5
 215   11:00   84.4    18    3.3   194     12.0   821.8    0.00    1055    74.6
 215   11:10   84.7    17    4.9   173     14.6   821.7    0.00    1057    74.6
 215   11:20   84.2    18    6.5   176     13.7   821.7    0.00     905    74.7
 215   11:30   84.5    16    5.5   167     14.2   821.7    0.00    1074    74.7
 215   11:40   85.9    16    3.5   165     13.3   821.6    0.00    1063    74.8
 215   11:50   85.7    17    5.0   215     14.2   821.6    0.00    1076    74.9
 215   12:00   85.3    17    4.1   241     13.2   821.6    0.00     876    75.0
 215   12:10   85.8    17    2.9   144     15.1   821.5    0.00    1089    75.2
 215   12:20   85.9    17    3.7   243     10.6   821.4    0.00     956    75.3
 215   12:30   86.0    16    3.5   225     11.4   821.4    0.00    1063    75.4
 215   12:40   86.6    16    4.0   224     15.9   821.2    0.00    1039    75.5
 215   12:50   86.4    14    8.1   127     18.0   821.1    0.00    1024    75.7
 215   13:00   86.6    14    7.3   154     18.3   821.0    0.00    1018    75.8
 215   13:10   87.3    14    3.7   173     12.3   821.0    0.00    1006    75.9
 215   13:20   86.8    14    6.2   145     16.8   821.0    0.00     994    76.0
 215   13:30   86.6    14    5.5   130     15.6   820.9    0.00     971    76.2
 215   13:40   86.8    15    4.3   159     17.2   820.7    0.00     965    76.3
 215   13:50   87.3    14    4.8   156     14.2   820.6    0.00     939    76.4
 215   14:00   87.0    15    3.4   137     14.1   820.5    0.00     846    76.6
 215   14:10   87.7    15    2.9   231     11.2   820.3    0.00     853    76.7
 215   14:20   86.8    15    7.2   139     15.9   820.2    0.00     576    76.9
 215   14:30   86.8    15   10.3   137     24.3   820.1    0.00     731    77.1
 215   14:40   86.3    15   10.0   132     20.5   820.2    0.00     484    77.3
 215   14:50   85.7    15    6.9   137     17.8   820.1    0.00     681    77.5
 215   15:00   87.0    15    8.8   148     19.1   820.1    0.00     706    77.6
 215   15:10   85.4    16    8.0   140     15.4   820.1    0.00     195    77.8
 215   15:20   85.6    16    9.8   144     17.1   820.0    0.00     716    78.0
 215   15:30   86.3    15    8.9   136     18.9   819.9    0.00     693    78.1
 215   15:40   86.1    16   10.8   128     19.4   819.8    0.00     657    78.3
 215   15:50   86.2    16    8.7   132     16.9   819.8    0.00     625    78.5
 215   16:00   85.7    16    9.5   128     18.3   819.8    0.00     543    78.7
 215   16:10   85.5    16    8.5   141     17.9   819.7    0.00     272    78.9
 215   16:20   85.1    16   10.8   139     16.6   819.7    0.00     107    79.0
 215   16:30   85.3    16    5.8   159     16.9   819.6    0.00      83    79.1
 215   16:40   85.5    16    8.1   138     13.8   819.6    0.00     102    79.3
 215   16:50   85.2    16    8.6   118     19.4   819.5    0.00     184    79.4
 215   17:00   85.4    15    6.6   141     15.3   819.5    0.00     253    79.4
 215   17:10   85.3    16    4.2   142      8.8   819.6    0.00     240    79.5
 215   17:20   84.5    16    4.5   146     12.2   819.5    0.00     157    79.6
 215   17:30   83.8    14    4.0   185      9.9   819.6    0.00      80    79.8
 215   17:40   83.7    15    4.8   191      8.7   819.6    0.00     141    79.9
 215   17:50   83.6    16    4.0   153     10.9   819.7    0.00      81    80.0
 215   18:00   82.7    17    4.4   161      9.2   819.7    0.00      38    80.0
 215   18:10   82.3    17    2.2   226      4.6   819.7    0.00      29    80.1
 215   18:20   81.3    18    2.8   191      5.8   819.8    0.00      17    80.2
 215   18:30   81.0    18    2.7   201      6.6   819.8    0.00      17    80.2
 215   18:40   80.7    18    3.3   181      5.8   819.8    0.00      10    80.3
 215   18:50   80.4    18    2.7   164      5.6   819.9    0.00       5    80.3
 215   19:00   78.7    20    3.9   132      5.6   820.0    0.00       2    80.3
 215   19:10   77.8    20    3.7   154      6.0   820.1    0.00       0    80.3
 215   19:20   78.5    19    3.8   143      6.4   820.1    0.00       0    80.3
 215   19:30   77.7    19    3.5   141      9.3   820.2    0.00       0    80.4
 215   19:40   78.2    18    3.5   146      6.7   820.2    0.00       0    80.4
 215   19:50   78.6    18    4.2   145      8.5   820.3    0.00       0    80.4
 215   20:00   78.5    18    3.7   148      6.5   820.3    0.00       0    80.4
 215   20:10   77.9    18    4.2   146      7.1   820.4    0.00       0    80.4
 215   20:20   77.8    19    4.2   150      8.2   820.4    0.00       0    80.3
 215   20:30   77.9    19    4.5   143      8.7   820.5    0.00       0    80.3
 215   20:40   76.8    20    3.9   142      5.6   820.6    0.00       0    80.3
 215   20:50   75.2    21    3.9   143      5.0   820.7    0.00       0    80.3
 215   21:00   74.4    22    3.8   145      5.2   820.8    0.00       0    80.3
 215   21:10   74.1    22    3.2   142      5.3   820.8    0.00       0    80.2
 215   21:20   74.1    24    2.8   297     10.3   820.9    0.00       0    80.2
 215   21:30   71.4    34    6.6   296     10.7   821.0    0.00       0    80.2
 215   21:40   70.2    38    3.2   297      7.4   821.1    0.00       0    80.1
 215   21:50   69.4    40    2.5   271     10.3   821.2    0.00       0    80.1
 215   22:00   70.2    39    4.6   273      9.2   821.2    0.00       0    80.1
 215   22:10   70.1    39    3.0   270      8.5   821.2    0.00       0    80.0
 215   22:20   69.7    40    2.4   282      5.6   821.3    0.00       0    79.9
 215   22:30   68.1    47    1.0   212      2.1   821.3    0.00       0    79.9
 215   22:40   66.5    47    2.1   264      6.3   821.3    0.00       0    79.8
 215   22:50   68.0    43    2.0   263      6.4   821.3    0.00       0    79.8
 215   23:00   67.1    46    0.3   231      1.8   821.3    0.00       0    79.7
 215   23:10   65.9    49    0.5   224      2.2   821.4    0.00       0    79.7
 215   23:20   65.0    47    1.7   155      3.6   821.4    0.00       0    79.6
 215   23:30   67.2    40    2.9   137      4.4   821.5    0.00       0    79.6
 215   23:40   68.1    39    3.5   118      5.4   821.5    0.00       0    79.5
 215   23:50   68.4    40    2.6    87      5.5   821.5    0.00       0    79.5
 216    0:00   67.2    43    2.5   124      3.8   821.6    0.00       0    79.4
 216    0:10   66.7    44    3.8   141      4.9   821.5    0.00       0    79.3
 216    0:20   67.0    44    2.3   120      4.7   821.5    0.00       0    79.3
 216    0:30   67.4    45    2.4   118      3.4   821.6    0.00       0    79.2
 216    0:40   66.4    47    2.5   128      4.0   821.6    0.00       0    79.2
 216    0:50   65.9    49    2.5   149      4.0   821.6    0.00       0    79.1
 216    1:00   64.5    51    3.0   153      4.3   821.6    0.00       0    79.1
 216    1:10   64.2    53    1.5   161      3.9   821.6    0.00       0    79.0
 216    1:20   63.8    53    1.7   166      3.0   821.6    0.00       0    78.9
 216    1:30   63.0    55    2.4   165      4.6   821.6    0.00       0    78.9
 216    1:40   63.0    52    3.9   150      5.0   821.7    0.00       0    78.8
 216    1:50   62.4    55    3.9   155      5.4   821.7    0.00       0    78.7
 216    2:00   61.5    60    2.5   160      4.2   821.6    0.00       0    78.7
 216    2:10   61.9    56    4.3   153      5.6   821.7    0.00       0    78.6
 216    2:20   62.3    54    4.5   150      6.2   821.7    0.00       0    78.5
 216    2:30   62.3    54    2.4   140      4.7   821.8    0.00       0    78.5
 216    2:40   60.3    66    1.3   160      2.9   821.8    0.00       0    78.4
 216    2:50   60.4    61    2.5   165      4.0   821.9    0.00       0    78.3
 216    3:00   58.6    69    1.5   194      3.0   821.9    0.00       0    78.2
 216    3:10   58.1    71    0.8   178      2.5   821.9    0.00       0    78.2
 216    3:20   58.0    73    0.7   170      1.5   821.9    0.00       0    78.1
 216    3:30   57.9    72    0.9   166      3.1   822.0    0.00       0    78.1
 216    3:40   57.8    68    1.0   180      2.8   821.9    0.00       0    78.0
 216    3:50   59.0    62    1.4   161      3.9   821.9    0.00       0    77.9
 216    4:00   58.6    62    0.8   208      3.1   822.0    0.00       0    77.8
 216    4:10   59.3    61    1.2   150      2.2   822.0    0.00       0    77.8
 216    4:20   58.7    61    1.0   158      2.1   822.0    0.00       0    77.7
 216    4:30   59.1    60    1.9   155      4.8   822.0    0.00       0    77.6
 216    4:40   59.5    58    1.3   176      2.9   822.0    0.00       1    77.5
 216    4:50   58.5    60    1.2   158      3.9   822.1    0.00       4    77.5
 216    5:00   58.0    61    0.9   183      2.0   822.2    0.00       8    77.4
 216    5:10   58.2    62    0.7   182      1.4   822.2    0.00      12    77.3
 216    5:20   58.6    62    0.8   166      1.5   822.2    0.00      14    77.3
 216    5:30   59.6    60    0.6   165      1.9   822.3    0.00      19    77.2
 216    5:40   60.7    57    0.0     0      0.0   822.4    0.00      33    77.1
 216    5:50   62.1    55    0.0     0      0.0   822.4    0.00      69    77.1
 216    6:00   63.9    52    0.0     0      0.0   822.4    0.00     108    77.0
 216    6:10   65.8    48    0.0     0      0.0   822.5    0.00     150    76.9
 216    6:20   68.2    44    0.8   335      2.6   822.5    0.00     261    76.9
 216    6:30   70.1    41    1.1   324      2.6   822.6    0.00     324    76.7
 216    6:40   74.1    34    0.2    81      1.7   822.7    0.00     353    76.7
 216    6:50   73.7    34    0.5    16      2.1   822.9    0.00     389    76.6
 216    7:00   74.1    33    0.1    50      1.5   822.9    0.00     412    76.6
 216    7:10   75.1    31    0.8    68      3.9   823.0    0.00     459    76.5
 216    7:20   74.0    32    1.3    70      4.9   823.0    0.00     497    76.5
 216    7:30   74.3    31    0.9    69      3.0   822.9    0.00     532    76.4
 216    7:40   75.3    31    1.8    72      4.5   822.9    0.00     567    76.4
 216    7:50   75.8    30    2.5    77      5.6   822.9    0.00     600    76.3
 216    8:00   76.7    25    5.7   117     13.3   822.8    0.00     636    76.3
 216    8:10   77.5    23    5.1   146      9.5   822.8    0.00     666    76.3
 216    8:20   77.8    23    5.3   148      9.5   822.8    0.00     696    76.2
 216    8:30   77.8    22    6.1   140     10.5   822.7    0.00     732    76.2
 216    8:40   78.5    22    7.3   126     11.7   822.7    0.00     753    76.2
 216    8:50   78.4    22    7.2   131     13.4   822.8    0.00     781    76.2
 216    9:00   79.3    21    5.1   136     11.5   822.9    0.00     813    76.1
 216    9:10   79.8    21    6.6   138     14.0   823.0    0.00     840    76.1
 216    9:20   80.4    19    5.6   137     12.6   823.1    0.00     864    76.1
 216    9:30   81.1    19    5.3   159     12.6   823.1    0.00     888    76.1
 216    9:40   81.7    18    6.3   130     13.0   823.0    0.00     913    76.1
 216    9:50   81.8    17    6.4   146     15.6   823.0    0.00     934    76.1
 216   10:00   82.7    15    6.0   134     17.0   822.9    0.00     950    76.1
 216   10:10   82.5    15    8.0   122     18.0   822.9    0.00     969    76.1

Return to Pioche, Nevada graphs page.


Western Regional Climate Center,wrcc@dri.edu